Time;durP1;ratioP1;P1;durP2;ratioP2;P2;SDS_P1;SDS_P2;PMS_P1;PMS_P2;Temp;Humidity;BMP_temperature;BMP_pressure;BME280_temperature;BME280_humidity;BME280_pressure;Samples;Min_cycle;Max_cycle;Signal;HPM_P1;HPM_P2
2021/03/01 00:00:13;;;;;;;42.47;9.27;;;;;;;4.54;100.00;103034.81;4989970;28;20482;-69
2021/03/01 00:02:39;;;;;;;46.30;9.47;;;;;;;4.52;100.00;103037.28;4990623;28;20410;-69
2021/03/01 00:05:06;;;;;;;40.43;8.33;;;;;;;4.51;100.00;103034.59;4984235;28;20305;-69
2021/03/01 00:07:32;;;;;;;49.00;9.97;;;;;;;4.49;100.00;103039.69;4992331;28;20038;-69
2021/03/01 00:09:57;;;;;;;40.17;7.67;;;;;;;4.50;100.00;103038.91;4989534;28;20289;-69
2021/03/01 00:12:23;;;;;;;36.60;7.50;;;;;;;4.50;100.00;103043.19;4988005;28;20026;-69
2021/03/01 00:14:48;;;;;;;37.33;8.53;;;;;;;4.51;100.00;103040.69;4989051;28;20060;-69
2021/03/01 00:17:14;;;;;;;36.30;7.67;;;;;;;4.51;100.00;103043.28;4990505;28;20420;-69
2021/03/01 00:19:39;;;;;;;32.53;6.93;;;;;;;4.52;100.00;103039.88;4996517;28;20034;-69
2021/03/01 00:22:05;;;;;;;27.90;6.20;;;;;;;4.51;100.00;103038.09;4993095;28;20467;-69
2021/03/01 00:24:30;;;;;;;30.50;7.50;;;;;;;4.55;100.00;103042.66;4995048;28;20022;-69
2021/03/01 00:26:56;;;;;;;25.70;6.47;;;;;;;4.52;100.00;103045.06;4993546;28;20083;-69
2021/03/01 00:29:21;;;;;;;32.23;6.80;;;;;;;4.52;100.00;103055.44;4989602;28;20053;-69
2021/03/01 00:31:47;;;;;;;26.43;5.80;;;;;;;4.49;100.00;103046.56;4996908;28;20062;-69
2021/03/01 00:34:12;;;;;;;30.27;6.43;;;;;;;4.44;100.00;103051.44;4995043;28;20027;-69
2021/03/01 00:36:38;;;;;;;24.00;5.83;;;;;;;4.41;100.00;103051.25;4994609;28;20422;-69
2021/03/01 00:39:04;;;;;;;28.73;6.50;;;;;;;4.36;100.00;103050.03;4989565;28;20072;-69
2021/03/01 00:41:29;;;;;;;25.87;6.10;;;;;;;4.32;100.00;103053.25;4992570;28;20034;-70
2021/03/01 00:43:55;;;;;;;32.70;7.00;;;;;;;4.29;100.00;103058.22;4994638;28;20344;-69
2021/03/01 00:46:20;;;;;;;27.30;5.77;;;;;;;4.26;100.00;103058.03;4994358;28;20030;-69
2021/03/01 00:48:46;;;;;;;29.90;6.33;;;;;;;4.23;100.00;103052.63;4992257;28;20033;-69
2021/03/01 00:51:12;;;;;;;37.07;7.40;;;;;;;4.16;100.00;103051.34;4994858;28;20486;-69
2021/03/01 00:53:37;;;;;;;37.23;7.67;;;;;;;4.01;100.00;103056.44;4993005;28;20482;-69
2021/03/01 00:56:03;;;;;;;49.13;8.73;;;;;;;3.95;100.00;103056.00;4994212;28;20160;-69
2021/03/01 00:58:28;;;;;;;44.27;8.40;;;;;;;3.86;100.00;103049.31;4994744;28;20141;-69
2021/03/01 01:00:54;;;;;;;46.03;7.80;;;;;;;3.86;100.00;103050.22;4993761;28;20026;-69
2021/03/01 01:03:20;;;;;;;38.27;7.50;;;;;;;3.81;100.00;103049.03;4995521;28;20129;-69
2021/03/01 01:05:46;;;;;;;37.93;7.23;;;;;;;3.76;100.00;103048.72;4994401;28;20030;-69
2021/03/01 01:08:12;;;;;;;31.60;7.23;;;;;;;3.73;100.00;103042.44;4993321;28;20069;-69
2021/03/01 01:10:38;;;;;;;32.10;7.97;;;;;;;3.64;100.00;103041.84;4995072;28;20294;-69
2021/03/01 01:13:04;;;;;;;30.10;7.73;;;;;;;3.60;100.00;103038.13;4994077;28;20120;-69
2021/03/01 01:15:31;;;;;;;39.67;8.60;;;;;;;3.63;100.00;103043.50;4994812;28;20045;-69
2021/03/01 01:17:56;;;;;;;44.60;8.33;;;;;;;3.64;100.00;103032.38;4992229;28;20282;-69
2021/03/01 01:20:22;;;;;;;37.57;9.47;;;;;;;3.65;100.00;103022.94;4993678;28;20792;-69
2021/03/01 01:22:48;;;;;;;44.07;10.07;;;;;;;3.68;100.00;103017.94;4993367;28;20037;-69
2021/03/01 01:25:15;;;;;;;45.90;8.43;;;;;;;3.70;100.00;103016.34;4994874;28;20061;-69
2021/03/01 01:27:41;;;;;;;51.60;9.77;;;;;;;3.72;100.00;103018.25;4993618;28;20034;-69
2021/03/01 01:30:12;;;;;;;53.80;10.00;;;;;;;3.73;100.00;103011.38;4989874;28;20305;-69
2021/03/01 01:32:37;;;;;;;49.37;9.43;;;;;;;3.75;100.00;103009.78;4992232;28;20042;-69
2021/03/01 01:35:06;;;;;;;35.20;8.77;;;;;;;3.75;100.00;103012.38;4994731;28;20292;-69
2021/03/01 01:37:32;;;;;;;38.20;8.80;;;;;;;3.75;100.00;103004.59;4993528;28;20517;-69
2021/03/01 01:39:57;;;;;;;42.70;9.67;;;;;;;3.78;100.00;103015.19;4992764;28;20368;-70
2021/03/01 01:42:23;;;;;;;44.83;9.07;;;;;;;3.77;100.00;103003.03;4993824;28;20040;-69
2021/03/01 01:44:48;;;;;;;41.57;9.53;;;;;;;3.81;100.00;103002.44;4994217;28;20038;-69
2021/03/01 01:47:14;;;;;;;49.27;11.20;;;;;;;3.80;100.00;102998.06;4992519;28;20034;-69
2021/03/01 01:49:39;;;;;;;46.77;11.37;;;;;;;3.80;100.00;102996.38;4993133;28;20450;-69
2021/03/01 01:52:05;;;;;;;52.10;10.90;;;;;;;3.82;100.00;103001.63;4992765;28;20038;-69
2021/03/01 01:54:31;;;;;;;50.90;10.83;;;;;;;3.80;100.00;102988.59;4993367;28;20030;-69
2021/03/01 01:56:57;;;;;;;51.00;10.27;;;;;;;3.79;100.00;102997.16;4993846;28;20037;-69
2021/03/01 01:59:23;;;;;;;56.27;10.73;;;;;;;3.83;100.00;102988.78;4993345;28;20281;-70
2021/03/01 02:01:49;;;;;;;52.27;11.53;;;;;;;3.80;100.00;102987.72;5001825;28;20066;-70
2021/03/01 02:04:24;;;;;;;50.47;9.53;;;;;;;3.79;100.00;102985.91;5003533;23;20482;-73
2021/03/01 02:07:30;;;;;;;65.00;11.53;;;;;;;3.80;100.00;102988.59;4992648;28;20293;-72
2021/03/01 02:10:05;;;;;;;53.80;9.63;;;;;;;3.80;100.00;102982.53;4959881;28;20315;-72
2021/03/01 02:13:09;;;;;;;53.57;10.80;;;;;;;3.82;100.00;102975.75;4995135;28;20748;-72
2021/03/01 02:15:47;;;;;;;42.13;10.30;;;;;;;3.82;100.00;102976.66;4974175;28;20304;-72
2021/03/01 02:18:13;;;;;;;64.83;10.90;;;;;;;3.80;100.00;102982.53;4990881;28;20370;-72
2021/03/01 02:20:43;;;;;;;53.77;10.23;;;;;;;3.83;100.00;102980.13;4993020;28;20409;-72
2021/03/01 02:23:10;;;;;;;58.70;10.27;;;;;;;3.81;100.00;102981.72;4992814;28;20038;-72
2021/03/01 02:25:39;;;;;;;65.00;10.83;;;;;;;3.79;100.00;102970.38;4989084;28;20784;-72
2021/03/01 02:28:08;;;;;;;50.50;10.70;;;;;;;3.79;100.00;102976.47;4992465;28;20289;-72
2021/03/01 02:30:37;;;;;;;51.13;9.57;;;;;;;3.81;100.00;102974.88;4989819;28;20379;-72
2021/03/01 02:33:10;;;;;;;46.73;10.70;;;;;;;3.80;100.00;102967.00;4991878;28;20281;-72
2021/03/01 02:35:40;;;;;;;41.37;8.17;;;;;;;3.82;100.00;102966.31;4992530;28;20285;-72
2021/03/01 02:38:09;;;;;;;50.17;10.43;;;;;;;3.83;100.00;102959.44;4992883;28;20281;-72
2021/03/01 02:40:40;;;;;;;48.67;10.37;;;;;;;3.84;100.00;102974.16;4992311;28;20280;-72
2021/03/01 02:43:07;;;;;;;56.30;10.33;;;;;;;3.85;100.00;102975.94;4992010;28;20296;-72
2021/03/01 02:45:33;;;;;;;58.33;11.50;;;;;;;3.86;100.00;102969.09;4990881;28;20273;-72
2021/03/01 02:48:00;;;;;;;43.67;9.67;;;;;;;3.82;100.00;102962.81;4989283;28;20434;-72
2021/03/01 02:50:26;;;;;;;52.10;9.57;;;;;;;3.83;100.00;102973.28;4990880;28;20391;-71
2021/03/01 02:52:53;;;;;;;49.87;8.47;;;;;;;3.81;100.00;102968.78;4991543;28;20289;-71
2021/03/01 02:55:20;;;;;;;47.63;9.33;;;;;;;3.83;100.00;102973.28;4992663;28;20288;-72
2021/03/01 02:57:47;;;;;;;46.43;9.10;;;;;;;3.85;100.00;102968.19;4992130;28;20293;-72
2021/03/01 03:00:14;;;;;;;44.47;8.93;;;;;;;3.86;100.00;102972.56;4988251;28;20347;-72
2021/03/01 03:02:42;;;;;;;52.77;8.13;;;;;;;3.87;100.00;102974.34;4993069;28;20277;-72
2021/03/01 03:05:11;;;;;;;51.07;9.70;;;;;;;3.88;100.00;102971.00;4990262;28;20797;-72
2021/03/01 03:07:39;;;;;;;43.17;8.23;;;;;;;3.82;100.00;102961.13;4987405;28;20288;-72
2021/03/01 03:10:07;;;;;;;49.63;8.50;;;;;;;3.83;100.00;102977.56;4988721;28;20749;-72
2021/03/01 03:12:34;;;;;;;46.37;10.07;;;;;;;3.86;100.00;102979.44;4993769;28;20300;-72
2021/03/01 03:15:01;;;;;;;53.80;10.43;;;;;;;3.86;100.00;102977.75;4990827;28;20685;-72
2021/03/01 03:17:31;;;;;;;47.70;8.93;;;;;;;3.87;100.00;102973.47;4990735;28;20281;-72
2021/03/01 03:20:01;;;;;;;36.97;8.63;;;;;;;3.89;100.00;102972.78;4990399;28;20277;-71
2021/03/01 03:22:27;;;;;;;45.83;8.80;;;;;;;3.88;100.00;102971.00;4989080;28;20832;-72
2021/03/01 03:24:52;;;;;;;53.23;9.23;;;;;;;3.88;100.00;102965.81;4991186;28;20285;-72
2021/03/01 03:27:17;;;;;;;43.97;9.03;;;;;;;3.91;100.00;102971.19;4990800;28;20034;-72
2021/03/01 03:29:43;;;;;;;39.80;9.63;;;;;;;3.91;100.00;102976.38;4991180;28;20044;-72
2021/03/01 03:32:09;;;;;;;57.77;10.83;;;;;;;3.93;100.00;102979.94;4990638;28;20038;-72
2021/03/01 03:34:34;;;;;;;44.27;9.57;;;;;;;3.91;100.00;102971.19;4991249;28;20045;-72
2021/03/01 03:37:06;;;;;;;50.13;10.97;;;;;;;3.89;100.00;102967.63;4990231;28;20038;-72
2021/03/01 03:39:36;;;;;;;47.53;8.93;;;;;;;3.87;100.00;102966.59;4991790;28;20026;-72
2021/03/01 03:42:03;;;;;;;50.40;9.23;;;;;;;3.90;100.00;102973.69;4990748;28;20034;-72
2021/03/01 03:44:31;;;;;;;39.10;7.70;;;;;;;3.89;100.00;102972.78;4991185;28;20328;-72
2021/03/01 03:46:58;;;;;;;30.83;7.87;;;;;;;3.91;100.00;102965.13;4991860;28;20630;-72
2021/03/01 03:49:27;;;;;;;46.40;8.40;;;;;;;3.92;100.00;102975.56;4986796;28;20371;-71
2021/03/01 03:51:56;;;;;;;47.57;7.63;;;;;;;3.93;100.00;102974.78;4989330;28;20290;-72
2021/03/01 03:54:25;;;;;;;37.47;7.50;;;;;;;3.94;100.00;102983.44;4994108;28;20761;-73
2021/03/01 03:56:56;;;;;;;32.03;6.77;;;;;;;3.94;100.00;102976.56;4993679;28;20681;-73
2021/03/01 03:59:32;;;;;;;25.93;5.93;;;;;;;3.95;100.00;102974.88;4993696;28;20288;-72
2021/03/01 04:01:58;;;;;;;27.77;5.73;;;;;;;3.95;100.00;102980.94;4995777;28;20274;-72
2021/03/01 04:04:26;;;;;;;24.47;5.67;;;;;;;3.96;100.00;102980.13;4992723;28;20377;-73
2021/03/01 04:06:52;;;;;;;38.47;6.40;;;;;;;3.98;100.00;102975.06;4992801;28;20311;-73
2021/03/01 04:09:20;;;;;;;29.57;4.83;;;;;;;3.99;100.00;102969.97;4988056;28;20316;-73
2021/03/01 04:11:47;;;;;;;29.30;5.40;;;;;;;4.00;100.00;102966.63;4992205;28;20351;-72
2021/03/01 04:14:21;;;;;;;24.27;4.50;;;;;;;3.97;100.00;102963.81;4994727;28;20285;-73
2021/03/01 04:16:50;;;;;;;30.33;4.40;;;;;;;3.98;100.00;102968.19;4994971;28;20727;-73
2021/03/01 04:19:18;;;;;;;24.40;5.20;;;;;;;4.01;100.00;102978.75;4993264;28;20296;-73
2021/03/01 04:21:46;;;;;;;15.50;4.50;;;;;;;4.00;100.00;102976.97;4993747;28;20297;-72
2021/03/01 04:24:14;;;;;;;20.13;4.73;;;;;;;4.02;100.00;102970.19;4994340;28;20661;-72
2021/03/01 04:26:41;;;;;;;17.37;4.57;;;;;;;4.00;100.00;102969.22;4993673;28;20289;-72
2021/03/01 04:29:06;;;;;;;17.33;4.13;;;;;;;4.03;100.00;102965.91;4992382;28;20292;-72
2021/03/01 04:31:33;;;;;;;17.43;3.93;;;;;;;4.03;100.00;102969.41;4994447;28;20285;-72
2021/03/01 04:34:01;;;;;;;16.97;4.00;;;;;;;4.08;100.00;102972.28;4993696;28;20026;-72
2021/03/01 04:36:27;;;;;;;19.90;4.63;;;;;;;4.06;100.00;102972.19;4992869;28;20286;-72
2021/03/01 04:38:52;;;;;;;13.70;3.00;;;;;;;4.07;100.00;102967.91;4994170;28;20660;-72
2021/03/01 04:41:19;;;;;;;14.73;3.37;;;;;;;4.08;100.00;102970.56;4992336;28;20360;-72
2021/03/01 04:43:45;;;;;;;19.30;3.93;;;;;;;4.09;100.00;102967.19;4994321;28;20070;-72
2021/03/01 04:46:12;;;;;;;27.03;5.00;;;;;;;4.09;100.00;102966.28;4993805;28;20289;-72
2021/03/01 04:48:39;;;;;;;15.23;4.00;;;;;;;4.08;100.00;102972.28;4993426;28;20289;-72
2021/03/01 04:51:05;;;;;;;15.60;4.47;;;;;;;4.07;100.00;102965.31;4992810;28;20292;-72
2021/03/01 04:53:33;;;;;;;17.53;3.90;;;;;;;4.04;100.00;102968.59;4993762;28;20277;-73
2021/03/01 04:55:59;;;;;;;23.10;3.60;;;;;;;4.01;100.00;102965.81;4995104;28;20771;-72
2021/03/01 04:58:25;;;;;;;14.60;3.30;;;;;;;4.00;100.00;102966.63;4994091;28;20646;-72
2021/03/01 05:00:51;;;;;;;15.33;3.80;;;;;;;4.01;100.00;102962.34;4990598;28;20293;-72
2021/03/01 05:03:17;;;;;;;10.90;3.50;;;;;;;4.02;100.00;102965.03;4993881;28;20434;-72
2021/03/01 05:05:43;;;;;;;10.07;2.87;;;;;;;4.04;100.00;102962.53;4991036;28;20301;-72
2021/03/01 05:08:15;;;;;;;10.43;2.57;;;;;;;4.01;100.00;102958.06;4993869;28;20026;-72
2021/03/01 05:10:41;;;;;;;11.63;2.45;;;;;;;4.00;100.00;102955.38;4989822;28;20293;-73
2021/03/01 05:13:07;;;;;;;10.87;2.40;;;;;;;3.99;100.00;102964.78;4994345;28;20381;-73
2021/03/01 05:15:33;;;;;;;6.40;2.13;;;;;;;3.97;100.00;102966.41;4990326;28;20356;-72
2021/03/01 05:17:58;;;;;;;10.53;2.30;;;;;;;3.94;100.00;102968.78;4994893;28;20022;-73
2021/03/01 05:20:24;;;;;;;10.07;2.47;;;;;;;3.94;100.00;102970.50;4990234;28;20045;-73
2021/03/01 05:22:50;;;;;;;8.60;2.53;;;;;;;3.92;100.00;102972.09;4989829;28;20029;-72
2021/03/01 05:25:16;;;;;;;8.70;2.43;;;;;;;3.89;100.00;102970.19;4993078;28;20049;-72
2021/03/01 05:27:42;;;;;;;8.00;2.17;;;;;;;3.85;100.00;102965.59;4993211;28;20309;-73
2021/03/01 05:30:09;;;;;;;9.60;2.40;;;;;;;3.85;100.00;102959.53;4991920;28;20471;-72
2021/03/01 05:32:35;;;;;;;8.30;1.87;;;;;;;3.79;100.00;102966.09;4993794;28;20026;-72
2021/03/01 05:35:00;;;;;;;8.23;2.03;;;;;;;3.81;100.00;102968.78;4992008;28;20281;-72
2021/03/01 05:37:26;;;;;;;7.60;2.57;;;;;;;3.78;100.00;102958.25;4990796;28;20078;-73
2021/03/01 05:39:51;;;;;;;10.30;2.20;;;;;;;3.77;100.00;102969.41;4988706;28;20486;-73
2021/03/01 05:42:19;;;;;;;9.53;2.40;;;;;;;3.75;100.00;102968.38;4991161;28;20057;-73
2021/03/01 05:44:45;;;;;;;7.40;2.33;;;;;;;3.69;100.00;102962.81;4991298;28;20081;-75
2021/03/01 05:47:10;;;;;;;5.93;1.90;;;;;;;3.65;100.00;102966.00;4990827;28;20289;-75
2021/03/01 05:49:40;;;;;;;8.33;2.53;;;;;;;3.62;100.00;102960.59;4991485;28;20433;-76
2021/03/01 05:52:07;;;;;;;8.43;2.43;;;;;;;3.59;100.00;102960.41;4990887;28;20549;-75
2021/03/01 05:54:37;;;;;;;7.80;1.90;;;;;;;3.60;100.00;102962.19;4989743;28;20823;-75
2021/03/01 05:57:05;;;;;;;4.83;1.70;;;;;;;3.58;100.00;102963.78;4992471;28;20637;-75
2021/03/01 05:59:31;;;;;;;4.10;1.43;;;;;;;3.50;100.00;102960.69;4992362;28;20292;-76
2021/03/01 06:01:57;;;;;;;6.97;2.00;;;;;;;3.46;100.00;102959.59;4992648;28;20281;-75
2021/03/01 06:04:23;;;;;;;6.03;2.17;;;;;;;3.42;100.00;102960.19;4993233;28;20050;-75
2021/03/01 06:06:49;;;;;;;7.07;2.07;;;;;;;3.39;100.00;102957.41;4990278;28;20746;-75
2021/03/01 06:09:15;;;;;;;6.23;2.13;;;;;;;3.40;100.00;102961.78;4993930;28;20061;-75
2021/03/01 06:11:40;;;;;;;9.97;2.40;;;;;;;3.37;100.00;102964.16;4993635;28;20305;-75
2021/03/01 06:14:06;;;;;;;9.03;2.53;;;;;;;3.35;100.00;102954.50;4992729;28;20073;-75
2021/03/01 06:16:32;;;;;;;7.43;1.90;;;;;;;3.35;100.00;102968.31;4993222;28;20034;-75
2021/03/01 06:18:58;;;;;;;10.50;2.93;;;;;;;3.36;100.00;102962.34;4991739;28;20033;-75
2021/03/01 06:21:24;;;;;;;11.77;3.10;;;;;;;3.37;100.00;102964.16;4991956;28;20285;-75
2021/03/01 06:23:50;;;;;;;10.97;3.07;;;;;;;3.37;100.00;102960.66;4993402;28;20592;-75
2021/03/01 06:26:31;;;;;;;11.53;3.57;;;;;;;3.38;100.00;102973.69;4993426;28;20057;-76
2021/03/01 06:29:02;;;;;;;12.70;3.60;;;;;;;3.35;100.00;102970.91;4993481;28;20281;-75
2021/03/01 06:31:37;;;;;;;13.23;3.10;;;;;;;3.35;100.00;102976.06;4993540;28;20274;-75
2021/03/01 06:34:19;;;;;;;14.37;3.43;;;;;;;3.35;100.00;102965.72;4993320;28;20026;-75
2021/03/01 06:36:55;;;;;;;14.35;4.28;;;;;;;3.36;100.00;102967.53;4992894;28;20273;-75
2021/03/01 06:39:26;;;;;;;20.33;4.60;;;;;;;3.39;100.00;102978.09;4989791;28;20061;-75
2021/03/01 06:41:51;;;;;;;17.63;4.33;;;;;;;3.38;100.00;102988.31;4990804;28;20281;-75
2021/03/01 06:44:17;;;;;;;18.90;4.90;;;;;;;3.38;100.00;102985.72;4993233;28;20856;-76
2021/03/01 06:46:49;;;;;;;25.23;5.83;;;;;;;3.45;100.00;102988.84;4991021;28;20041;-75
2021/03/01 06:49:16;;;;;;;26.35;5.75;;;;;;;3.48;100.00;102989.03;4989294;28;20482;-75
2021/03/01 06:51:42;;;;;;;22.60;5.53;;;;;;;3.43;100.00;102992.13;4989976;28;20030;-74
2021/03/01 06:54:08;;;;;;;25.07;5.43;;;;;;;3.42;100.00;102983.47;4991532;28;20277;-75
2021/03/01 06:56:38;;;;;;;26.17;6.00;;;;;;;3.38;100.00;102986.63;4989237;28;20150;-75
2021/03/01 06:59:14;;;;;;;25.47;6.63;;;;;;;3.41;100.00;102975.63;4992151;28;20029;-75
2021/03/01 07:01:45;;;;;;;34.50;6.50;;;;;;;3.39;100.00;102983.28;4991539;28;21305;-75
2021/03/01 07:04:17;;;;;;;33.10;6.63;;;;;;;3.41;100.00;102978.19;4989851;28;20794;-75
2021/03/01 07:06:43;;;;;;;20.37;5.40;;;;;;;3.41;100.00;102991.13;4990947;28;20615;-74
2021/03/01 07:09:16;;;;;;;22.37;5.07;;;;;;;3.37;100.00;102995.19;4993039;28;20280;-75
2021/03/01 07:11:43;;;;;;;22.17;5.07;;;;;;;3.32;100.00;102988.81;4987636;28;20030;-75
2021/03/01 07:14:12;;;;;;;22.03;4.90;;;;;;;3.26;100.00;102990.97;4991888;28;20820;-75
2021/03/01 07:16:38;;;;;;;14.37;3.50;;;;;;;3.26;100.00;102996.13;4983029;28;20293;-75
2021/03/01 07:19:13;;;;;;;19.37;4.00;;;;;;;3.25;100.00;102999.50;4991613;28;20289;-76
2021/03/01 07:21:41;;;;;;;14.37;3.37;;;;;;;3.23;100.00;102996.81;4991411;28;20053;-75
2021/03/01 07:24:08;;;;;;;16.00;3.77;;;;;;;3.17;100.00;103001.59;4990642;28;20295;-75
2021/03/01 07:26:34;;;;;;;15.57;3.40;;;;;;;3.14;100.00;102993.59;4988567;28;20296;-74
2021/03/01 07:29:11;;;;;;;14.20;3.80;;;;;;;3.14;100.00;102995.28;4992575;28;20356;-75
2021/03/01 07:31:40;;;;;;;10.70;3.27;;;;;;;3.14;100.00;102997.88;4991490;28;20293;-76
2021/03/01 07:34:09;;;;;;;8.70;3.17;;;;;;;3.12;100.00;102999.47;4989206;28;20284;-75
2021/03/01 07:36:36;;;;;;;14.00;3.47;;;;;;;3.15;100.00;103002.25;4989516;28;20626;-75
2021/03/01 07:39:07;;;;;;;12.40;3.90;;;;;;;3.09;100.00;103007.03;4990112;28;20289;-75
2021/03/01 07:41:33;;;;;;;13.10;3.60;;;;;;;3.14;100.00;103008.22;4988771;28;20633;-75
2021/03/01 07:43:59;;;;;;;7.87;2.43;;;;;;;3.14;100.00;103011.69;4991148;28;20030;-75
2021/03/01 07:46:30;;;;;;;12.33;3.03;;;;;;;3.21;100.00;103016.53;4989715;28;20027;-75
2021/03/01 07:48:57;;;;;;;12.20;3.27;;;;;;;3.20;100.00;103016.41;4984336;28;20311;-75
2021/03/01 07:51:47;;;;;;;9.17;2.80;;;;;;;3.29;100.00;103017.06;4992819;28;20376;-75
2021/03/01 07:54:19;;;;;;;7.23;2.57;;;;;;;3.31;100.00;103018.06;4980761;28;20282;-75
2021/03/01 07:56:47;;;;;;;10.77;2.60;;;;;;;3.39;100.00;103019.47;4988076;28;20670;-74
2021/03/01 07:59:14;;;;;;;10.60;2.57;;;;;;;3.47;100.00;103027.75;4989947;28;20331;-75
2021/03/01 08:01:40;;;;;;;10.23;2.90;;;;;;;3.59;100.00;103023.38;4990032;28;20278;-75
2021/03/01 08:04:26;;;;;;;12.20;2.83;;;;;;;3.68;100.00;103017.94;4991574;28;20297;-75
2021/03/01 08:06:57;;;;;;;8.13;2.83;;;;;;;3.79;100.00;103022.16;4989640;28;20041;-75
2021/03/01 08:09:57;;;;;;;8.07;2.60;;;;;;;3.90;100.00;103016.00;4992460;28;20273;-75
2021/03/01 08:12:28;;;;;;;10.33;2.43;;;;;;;3.87;100.00;103015.78;4920716;29;20292;-75
2021/03/01 08:14:58;;;;;;;9.03;3.13;;;;;;;3.86;100.00;103013.09;4969780;28;20282;-75
2021/03/01 08:17:29;;;;;;;8.10;3.20;;;;;;;3.81;100.00;103010.19;4991974;28;20604;-75
2021/03/01 08:19:57;;;;;;;10.40;2.70;;;;;;;3.90;100.00;103009.91;4992415;28;20623;-75
2021/03/01 08:22:23;;;;;;;9.10;2.47;;;;;;;3.96;100.00;103024.16;4991934;28;20274;-74
2021/03/01 08:24:50;;;;;;;8.27;2.60;;;;;;;4.01;100.00;103009.84;4992027;28;20282;-75
2021/03/01 08:27:25;;;;;;;10.50;3.13;;;;;;;4.18;100.00;103021.28;4991844;28;20289;-75
2021/03/01 08:30:32;;;;;;;9.90;3.23;;;;;;;4.24;100.00;103013.91;4992472;28;20629;-75
2021/03/01 08:33:10;;;;;;;10.10;3.23;;;;;;;4.39;100.00;103021.78;4988367;28;20301;-75
2021/03/01 08:35:51;;;;;;;11.47;3.13;;;;;;;4.35;100.00;103022.34;4991965;28;20784;-75
2021/03/01 08:38:43;;;;;;;9.60;3.00;;;;;;;4.41;100.00;103009.81;4991887;28;20339;-76
2021/03/01 08:41:15;;;;;;;9.00;2.97;;;;;;;4.50;100.00;103010.41;4995027;28;20792;-75
2021/03/01 08:43:43;;;;;;;11.90;3.10;;;;;;;4.59;100.00;103010.94;4995203;28;20281;-74
2021/03/01 08:46:15;;;;;;;10.97;3.13;;;;;;;4.56;100.00;103010.78;4994467;28;20383;-75
2021/03/01 08:48:49;;;;;;;10.38;3.03;;;;;;;4.62;100.00;103003.41;4995432;28;20420;-75
2021/03/01 08:51:17;;;;;;;12.17;3.00;;;;;;;4.77;100.00;103002.56;4993832;28;20038;-75
2021/03/01 08:53:43;;;;;;;10.20;2.97;;;;;;;4.83;100.00;103005.50;4995577;28;20257;-75
2021/03/01 08:56:18;;;;;;;8.43;3.00;;;;;;;4.98;100.00;103006.50;4994603;28;20489;-75
2021/03/01 08:58:44;;;;;;;8.20;2.90;;;;;;;5.11;100.00;103006.44;4982711;28;20030;-76
2021/03/01 09:01:10;;;;;;;10.27;3.33;;;;;;;5.31;100.00;103012.81;4994955;28;20193;-75
2021/03/01 09:03:37;;;;;;;11.37;3.10;;;;;;;5.39;100.00;103010.69;4995067;28;20356;-76
2021/03/01 09:06:15;;;;;;;8.03;3.03;;;;;;;5.47;100.00;103012.03;4994131;28;20045;-75
2021/03/01 09:08:40;;;;;;;10.63;2.90;;;;;;;5.55;100.00;103001.28;4994857;28;20062;-76
2021/03/01 09:11:19;;;;;;;11.17;3.30;;;;;;;5.36;100.00;103003.63;4994630;28;20080;-76
2021/03/01 09:13:47;;;;;;;9.50;3.03;;;;;;;5.45;100.00;103016.22;4995159;28;20463;-76
2021/03/01 09:16:24;;;;;;;11.00;3.30;;;;;;;5.37;100.00;103009.69;4994628;28;20034;-76
2021/03/01 09:18:52;;;;;;;8.80;2.67;;;;;;;5.52;100.00;102990.75;4994917;28;20049;-76
2021/03/01 09:21:19;;;;;;;10.27;2.60;;;;;;;5.65;100.00;102997.53;4994498;28;20030;-75
2021/03/01 09:23:55;;;;;;;13.60;3.70;;;;;;;6.07;99.28;103003.47;4994401;28;20022;-76
2021/03/01 09:26:33;;;;;;;9.70;2.70;;;;;;;6.56;98.36;103016.63;4985358;28;20069;-76
2021/03/01 09:28:58;;;;;;;9.27;2.70;;;;;;;6.51;96.62;103013.75;4994470;28;20062;-76
2021/03/01 09:31:24;;;;;;;7.57;2.90;;;;;;;6.11;95.68;103006.31;4994719;28;20338;-76
2021/03/01 09:33:51;;;;;;;10.70;2.97;;;;;;;5.82;97.25;103007.22;4994600;28;20053;-76
2021/03/01 09:36:16;;;;;;;9.07;3.50;;;;;;;5.71;98.95;103010.91;4994646;28;20061;-76
2021/03/01 09:38:50;;;;;;;10.37;2.97;;;;;;;5.85;97.57;103006.50;4994379;28;20057;-77
2021/03/01 09:41:15;;;;;;;8.50;2.77;;;;;;;6.02;98.67;103005.78;4994766;28;20471;-77
2021/03/01 09:43:44;;;;;;;9.70;3.23;;;;;;;6.10;97.95;103003.66;4994495;28;20033;-76
2021/03/01 09:46:11;;;;;;;9.00;2.73;;;;;;;5.80;97.06;102993.22;4994665;28;20157;-76
2021/03/01 09:48:47;;;;;;;7.57;2.83;;;;;;;5.77;98.38;102992.16;4993054;28;20065;-76
2021/03/01 09:51:13;;;;;;;10.53;3.47;;;;;;;5.67;99.47;102990.72;4993091;28;20027;-76
2021/03/01 09:53:40;;;;;;;11.53;2.87;;;;;;;5.61;100.00;102995.59;4994034;28;20154;-76
2021/03/01 09:56:05;;;;;;;12.33;2.77;;;;;;;5.64;100.00;102995.75;4994083;28;20026;-76
2021/03/01 09:58:42;;;;;;;9.03;3.10;;;;;;;5.60;100.00;102991.19;4994046;28;20088;-76
2021/03/01 10:01:16;;;;;;;10.73;3.33;;;;;;;5.57;100.00;102998.78;4994004;28;20034;-76
2021/03/01 10:03:42;;;;;;;10.70;3.67;;;;;;;5.72;100.00;103004.00;4993811;28;20046;-77
2021/03/01 10:06:14;;;;;;;11.13;3.83;;;;;;;5.80;99.62;102992.34;4990548;28;20038;-75
2021/03/01 10:08:41;;;;;;;12.40;3.17;;;;;;;5.93;98.97;102993.97;4993653;28;20030;-76
2021/03/01 10:11:24;;;;;;;10.37;2.97;;;;;;;6.25;98.33;102994.09;4993486;28;20069;-76
2021/03/01 10:13:50;;;;;;;9.57;3.50;;;;;;;6.52;97.37;102999.03;4993860;28;20114;-76
2021/03/01 10:16:37;;;;;;;9.60;3.33;;;;;;;6.82;93.43;102985.13;4998013;28;20409;-76
2021/03/01 10:19:12;;;;;;;10.53;3.27;;;;;;;6.90;93.34;102993.31;4993677;28;20069;-76
2021/03/01 10:21:38;;;;;;;8.60;3.03;;;;;;;7.02;93.35;102989.66;4993577;28;20026;-76
2021/03/01 10:24:06;;;;;;;9.93;3.33;;;;;;;7.16;94.09;102992.13;4993641;28;20122;-77
2021/03/01 10:26:47;;;;;;;8.50;2.80;;;;;;;7.04;93.21;102993.25;4993796;28;20438;-77
2021/03/01 10:29:13;;;;;;;9.03;2.90;;;;;;;6.92;92.73;102992.63;4993303;28;20077;-76
2021/03/01 10:31:39;;;;;;;14.77;3.70;;;;;;;6.82;93.78;102994.63;4993639;28;20513;-76
2021/03/01 10:34:05;;;;;;;8.13;3.00;;;;;;;6.75;93.55;102991.69;4993436;28;20081;-77
2021/03/01 10:36:34;;;;;;;7.83;3.10;;;;;;;6.56;93.46;102990.63;4993180;28;20084;-76
2021/03/01 10:39:06;;;;;;;9.33;3.30;;;;;;;6.45;93.85;102988.31;4992140;28;20509;-76
2021/03/01 10:41:39;;;;;;;10.80;3.00;;;;;;;6.58;93.76;102986.41;4986099;28;20061;-77
2021/03/01 10:44:06;;;;;;;7.97;2.83;;;;;;;6.53;93.08;102986.13;4990645;28;20447;-76
2021/03/01 10:46:36;;;;;;;10.17;3.03;;;;;;;6.43;94.51;102984.75;4992506;28;20106;-77
2021/03/01 10:49:04;;;;;;;10.30;3.17;;;;;;;6.37;95.37;102994.78;4993463;28;20031;-77
2021/03/01 10:51:29;;;;;;;10.27;3.60;;;;;;;6.36;96.21;102993.00;4992688;28;20077;-76
2021/03/01 10:53:55;;;;;;;9.87;3.43;;;;;;;6.64;95.01;102991.91;4993127;28;20033;-77
2021/03/01 10:56:20;;;;;;;9.50;2.80;;;;;;;6.83;93.92;102992.13;4999761;28;20049;-76
2021/03/01 10:58:46;;;;;;;9.50;3.10;;;;;;;6.88;92.71;102988.03;4993299;28;20065;-77
2021/03/01 11:01:12;;;;;;;11.40;3.53;;;;;;;6.68;94.69;102988.69;4992666;28;20080;-76
2021/03/01 11:03:37;;;;;;;9.47;3.33;;;;;;;6.63;95.16;102982.34;4993123;28;20113;-77
2021/03/01 11:06:03;;;;;;;10.53;3.87;;;;;;;6.65;95.38;102984.19;4989303;28;20386;-78
2021/03/01 11:08:28;;;;;;;12.57;3.17;;;;;;;6.57;94.50;102989.81;4993300;28;20113;-76
2021/03/01 11:10:54;;;;;;;10.40;3.73;;;;;;;6.72;95.84;102988.03;4993276;28;20529;-76
2021/03/01 11:13:19;;;;;;;11.30;3.60;;;;;;;6.81;94.56;102988.53;4992652;28;20058;-77
2021/03/01 11:15:45;;;;;;;12.37;3.97;;;;;;;6.79;94.77;102984.97;4992584;28;20069;-75
2021/03/01 11:18:10;;;;;;;12.13;3.57;;;;;;;6.86;94.33;102981.88;4992793;28;20038;-76
2021/03/01 11:20:36;;;;;;;11.63;3.03;;;;;;;6.88;95.51;102975.03;4992511;28;20113;-76
2021/03/01 11:23:02;;;;;;;14.53;3.53;;;;;;;6.98;95.96;102971.22;4992600;28;20026;-76
2021/03/01 11:25:28;;;;;;;10.27;3.10;;;;;;;6.98;91.64;102974.72;4992379;28;20030;-76